sensor_id;sensor_type;location;lat;lon;timestamp;P1;durP1;ratioP1;P2;durP2;ratioP2
7239;SDS011;3661;53.288;10.458;2023-08-31T00:02:09;1676.95;;;999.90;;
7239;SDS011;3661;53.288;10.458;2023-08-31T00:04:42;1697.50;;;999.90;;
7239;SDS011;3661;53.288;10.458;2023-08-31T00:07:14;1649.33;;;999.90;;
7239;SDS011;3661;53.288;10.458;2023-08-31T00:09:47;1663.40;;;999.90;;
7239;SDS011;3661;53.288;10.458;2023-08-31T00:12:19;1674.75;;;999.90;;
7239;SDS011;3661;53.288;10.458;2023-08-31T00:14:52;1658.30;;;999.90;;
7239;SDS011;3661;53.288;10.458;2023-08-31T00:17:29;1690.63;;;999.90;;
7239;SDS011;3661;53.288;10.458;2023-08-31T00:20:02;1679.38;;;999.90;;
7239;SDS011;3661;53.288;10.458;2023-08-31T00:22:36;1654.68;;;999.90;;
7239;SDS011;3661;53.288;10.458;2023-08-31T00:25:08;1666.85;;;999.90;;
7239;SDS011;3661;53.288;10.458;2023-08-31T00:27:42;1678.00;;;999.90;;
7239;SDS011;3661;53.288;10.458;2023-08-31T00:30:17;1672.07;;;999.90;;
7239;SDS011;3661;53.288;10.458;2023-08-31T00:32:51;1656.72;;;999.90;;
7239;SDS011;3661;53.288;10.458;2023-08-31T00:39:02;1659.78;;;999.90;;
7239;SDS011;3661;53.288;10.458;2023-08-31T00:41:40;1642.80;;;999.90;;
7239;SDS011;3661;53.288;10.458;2023-08-31T00:44:15;1658.23;;;999.90;;
7239;SDS011;3661;53.288;10.458;2023-08-31T00:46:47;1650.55;;;999.90;;
7239;SDS011;3661;53.288;10.458;2023-08-31T00:49:20;1673.47;;;999.90;;
7239;SDS011;3661;53.288;10.458;2023-08-31T00:51:53;1651.67;;;999.90;;
7239;SDS011;3661;53.288;10.458;2023-08-31T00:54:27;1660.82;;;999.90;;
7239;SDS011;3661;53.288;10.458;2023-08-31T00:56:59;1656.50;;;999.90;;
7239;SDS011;3661;53.288;10.458;2023-08-31T00:59:32;1659.47;;;999.90;;
7239;SDS011;3661;53.288;10.458;2023-08-31T01:02:05;1637.55;;;999.90;;
7239;SDS011;3661;53.288;10.458;2023-08-31T01:04:46;1647.18;;;999.90;;
7239;SDS011;3661;53.288;10.458;2023-08-31T01:07:29;1649.53;;;999.90;;
7239;SDS011;3661;53.288;10.458;2023-08-31T01:10:11;1659.38;;;999.90;;
7239;SDS011;3661;53.288;10.458;2023-08-31T01:12:50;1642.93;;;999.90;;
7239;SDS011;3661;53.288;10.458;2023-08-31T01:15:26;1643.33;;;999.90;;
7239;SDS011;3661;53.288;10.458;2023-08-31T01:18:02;1658.28;;;999.90;;
7239;SDS011;3661;53.288;10.458;2023-08-31T01:20:38;1651.13;;;999.90;;
7239;SDS011;3661;53.288;10.458;2023-08-31T01:23:18;1631.38;;;999.90;;
7239;SDS011;3661;53.288;10.458;2023-08-31T01:25:52;1651.47;;;999.90;;
7239;SDS011;3661;53.288;10.458;2023-08-31T01:28:24;1641.00;;;999.90;;
7239;SDS011;3661;53.288;10.458;2023-08-31T01:30:58;1638.78;;;999.90;;
7239;SDS011;3661;53.288;10.458;2023-08-31T01:33:35;1639.33;;;999.90;;
7239;SDS011;3661;53.288;10.458;2023-08-31T01:36:08;1628.85;;;999.90;;
7239;SDS011;3661;53.288;10.458;2023-08-31T01:38:50;1639.45;;;999.90;;
7239;SDS011;3661;53.288;10.458;2023-08-31T01:41:30;1633.10;;;999.90;;
7239;SDS011;3661;53.288;10.458;2023-08-31T01:44:08;1633.45;;;999.90;;
7239;SDS011;3661;53.288;10.458;2023-08-31T01:46:52;1623.22;;;999.90;;
7239;SDS011;3661;53.288;10.458;2023-08-31T01:49:24;1628.38;;;999.90;;
7239;SDS011;3661;53.288;10.458;2023-08-31T01:51:57;1627.82;;;999.90;;
7239;SDS011;3661;53.288;10.458;2023-08-31T01:54:30;1642.38;;;999.90;;
7239;SDS011;3661;53.288;10.458;2023-08-31T01:57:04;1630.93;;;999.90;;
7239;SDS011;3661;53.288;10.458;2023-08-31T01:59:37;1623.75;;;999.90;;
7239;SDS011;3661;53.288;10.458;2023-08-31T02:02:09;1629.50;;;999.90;;
7239;SDS011;3661;53.288;10.458;2023-08-31T02:04:43;1626.95;;;999.90;;
7239;SDS011;3661;53.288;10.458;2023-08-31T02:07:18;1624.15;;;999.90;;
7239;SDS011;3661;53.288;10.458;2023-08-31T02:09:50;1628.03;;;999.90;;
7239;SDS011;3661;53.288;10.458;2023-08-31T02:12:25;1630.03;;;999.90;;
7239;SDS011;3661;53.288;10.458;2023-08-31T02:14:58;1592.38;;;999.90;;
7239;SDS011;3661;53.288;10.458;2023-08-31T02:17:33;1608.93;;;999.90;;
7239;SDS011;3661;53.288;10.458;2023-08-31T02:20:07;1610.38;;;999.90;;
7239;SDS011;3661;53.288;10.458;2023-08-31T02:22:42;1624.30;;;999.90;;
7239;SDS011;3661;53.288;10.458;2023-08-31T02:25:16;1604.60;;;999.90;;
7239;SDS011;3661;53.288;10.458;2023-08-31T02:27:52;1614.63;;;999.90;;
7239;SDS011;3661;53.288;10.458;2023-08-31T02:30:27;1589.88;;;999.90;;
7239;SDS011;3661;53.288;10.458;2023-08-31T02:32:59;1621.50;;;999.90;;
7239;SDS011;3661;53.288;10.458;2023-08-31T02:35:32;1614.55;;;999.90;;
7239;SDS011;3661;53.288;10.458;2023-08-31T02:38:04;1597.28;;;999.90;;
7239;SDS011;3661;53.288;10.458;2023-08-31T02:40:36;1601.13;;;999.90;;
7239;SDS011;3661;53.288;10.458;2023-08-31T02:43:14;1601.40;;;999.90;;
7239;SDS011;3661;53.288;10.458;2023-08-31T02:45:49;1605.22;;;999.90;;
7239;SDS011;3661;53.288;10.458;2023-08-31T02:48:21;1584.82;;;999.90;;
7239;SDS011;3661;53.288;10.458;2023-08-31T02:50:53;1599.70;;;999.90;;
7239;SDS011;3661;53.288;10.458;2023-08-31T02:53:26;1596.32;;;999.90;;
7239;SDS011;3661;53.288;10.458;2023-08-31T02:55:58;1594.75;;;999.90;;
7239;SDS011;3661;53.288;10.458;2023-08-31T02:58:33;1590.82;;;999.90;;
7239;SDS011;3661;53.288;10.458;2023-08-31T03:01:06;1578.60;;;999.90;;
7239;SDS011;3661;53.288;10.458;2023-08-31T03:03:41;1582.23;;;999.90;;
7239;SDS011;3661;53.288;10.458;2023-08-31T03:06:15;1586.55;;;999.90;;
7239;SDS011;3661;53.288;10.458;2023-08-31T03:08:48;1567.13;;;999.90;;
7239;SDS011;3661;53.288;10.458;2023-08-31T03:11:21;1580.22;;;999.90;;
7239;SDS011;3661;53.288;10.458;2023-08-31T03:13:55;1582.65;;;999.90;;
7239;SDS011;3661;53.288;10.458;2023-08-31T03:16:27;1562.53;;;999.90;;
7239;SDS011;3661;53.288;10.458;2023-08-31T03:18:59;1574.38;;;999.90;;
7239;SDS011;3661;53.288;10.458;2023-08-31T03:21:31;1573.13;;;999.90;;
7239;SDS011;3661;53.288;10.458;2023-08-31T03:24:03;1581.65;;;999.90;;
7239;SDS011;3661;53.288;10.458;2023-08-31T03:26:36;1587.45;;;999.90;;
7239;SDS011;3661;53.288;10.458;2023-08-31T03:29:10;1569.80;;;999.90;;
7239;SDS011;3661;53.288;10.458;2023-08-31T03:31:42;1549.15;;;999.90;;
7239;SDS011;3661;53.288;10.458;2023-08-31T03:34:14;1550.10;;;999.90;;
7239;SDS011;3661;53.288;10.458;2023-08-31T03:36:47;1571.47;;;999.90;;
7239;SDS011;3661;53.288;10.458;2023-08-31T03:39:20;1569.17;;;999.90;;
7239;SDS011;3661;53.288;10.458;2023-08-31T03:41:53;1563.75;;;999.90;;
7239;SDS011;3661;53.288;10.458;2023-08-31T03:44:26;1551.95;;;999.90;;
7239;SDS011;3661;53.288;10.458;2023-08-31T03:46:59;1551.10;;;999.90;;
7239;SDS011;3661;53.288;10.458;2023-08-31T03:49:31;1562.80;;;999.90;;
7239;SDS011;3661;53.288;10.458;2023-08-31T03:52:05;1534.70;;;999.90;;
7239;SDS011;3661;53.288;10.458;2023-08-31T03:54:37;1545.22;;;999.90;;
7239;SDS011;3661;53.288;10.458;2023-08-31T03:57:09;1538.25;;;999.90;;
7239;SDS011;3661;53.288;10.458;2023-08-31T03:59:44;1557.80;;;999.90;;
7239;SDS011;3661;53.288;10.458;2023-08-31T04:02:16;1560.40;;;999.90;;
7239;SDS011;3661;53.288;10.458;2023-08-31T04:04:49;1537.47;;;999.90;;
7239;SDS011;3661;53.288;10.458;2023-08-31T04:07:21;1525.95;;;999.90;;
7239;SDS011;3661;53.288;10.458;2023-08-31T04:09:54;1532.07;;;999.90;;
7239;SDS011;3661;53.288;10.458;2023-08-31T04:12:26;1529.40;;;999.90;;
7239;SDS011;3661;53.288;10.458;2023-08-31T04:15:01;1536.00;;;999.90;;
7239;SDS011;3661;53.288;10.458;2023-08-31T04:17:34;1532.03;;;999.90;;
7239;SDS011;3661;53.288;10.458;2023-08-31T04:20:07;1506.87;;;999.90;;
7239;SDS011;3661;53.288;10.458;2023-08-31T04:22:40;1534.72;;;999.90;;
7239;SDS011;3661;53.288;10.458;2023-08-31T04:25:16;1527.20;;;999.90;;
7239;SDS011;3661;53.288;10.458;2023-08-31T04:27:48;1517.28;;;999.90;;
7239;SDS011;3661;53.288;10.458;2023-08-31T04:30:21;1517.03;;;999.90;;
7239;SDS011;3661;53.288;10.458;2023-08-31T04:32:54;1505.25;;;999.90;;
7239;SDS011;3661;53.288;10.458;2023-08-31T04:35:26;1517.53;;;999.90;;
7239;SDS011;3661;53.288;10.458;2023-08-31T04:38:01;1499.03;;;999.90;;
7239;SDS011;3661;53.288;10.458;2023-08-31T04:40:34;1512.50;;;999.90;;
7239;SDS011;3661;53.288;10.458;2023-08-31T04:43:07;1497.40;;;999.90;;
7239;SDS011;3661;53.288;10.458;2023-08-31T04:45:42;1518.88;;;999.90;;
7239;SDS011;3661;53.288;10.458;2023-08-31T04:48:14;1508.32;;;999.90;;
7239;SDS011;3661;53.288;10.458;2023-08-31T04:50:46;1495.05;;;999.90;;
7239;SDS011;3661;53.288;10.458;2023-08-31T04:53:18;1483.65;;;999.90;;
7239;SDS011;3661;53.288;10.458;2023-08-31T04:55:50;1497.57;;;999.90;;
7239;SDS011;3661;53.288;10.458;2023-08-31T04:58:22;1504.35;;;999.90;;
7239;SDS011;3661;53.288;10.458;2023-08-31T05:00:56;1494.50;;;999.90;;
7239;SDS011;3661;53.288;10.458;2023-08-31T05:03:28;1495.00;;;999.90;;
7239;SDS011;3661;53.288;10.458;2023-08-31T05:06:00;1515.47;;;999.90;;
7239;SDS011;3661;53.288;10.458;2023-08-31T05:08:34;1510.20;;;999.90;;
7239;SDS011;3661;53.288;10.458;2023-08-31T05:11:07;1487.35;;;999.90;;
7239;SDS011;3661;53.288;10.458;2023-08-31T05:13:39;1478.90;;;999.90;;
7239;SDS011;3661;53.288;10.458;2023-08-31T05:16:13;1473.80;;;999.90;;
7239;SDS011;3661;53.288;10.458;2023-08-31T05:18:46;1494.85;;;999.90;;
7239;SDS011;3661;53.288;10.458;2023-08-31T05:21:20;1488.40;;;999.90;;
7239;SDS011;3661;53.288;10.458;2023-08-31T05:23:53;1490.72;;;999.90;;
7239;SDS011;3661;53.288;10.458;2023-08-31T05:26:27;1486.53;;;999.90;;
7239;SDS011;3661;53.288;10.458;2023-08-31T05:28:59;1464.57;;;999.90;;
7239;SDS011;3661;53.288;10.458;2023-08-31T05:31:33;1489.82;;;999.90;;
7239;SDS011;3661;53.288;10.458;2023-08-31T05:34:06;1500.88;;;999.90;;
7239;SDS011;3661;53.288;10.458;2023-08-31T05:36:38;1489.75;;;999.90;;
7239;SDS011;3661;53.288;10.458;2023-08-31T05:39:10;1475.18;;;999.90;;
7239;SDS011;3661;53.288;10.458;2023-08-31T05:41:42;1497.22;;;999.90;;
7239;SDS011;3661;53.288;10.458;2023-08-31T05:44:15;1506.30;;;999.90;;
7239;SDS011;3661;53.288;10.458;2023-08-31T05:46:48;1490.75;;;999.90;;
7239;SDS011;3661;53.288;10.458;2023-08-31T05:49:21;1501.95;;;999.90;;
7239;SDS011;3661;53.288;10.458;2023-08-31T05:51:53;1508.72;;;999.90;;
7239;SDS011;3661;53.288;10.458;2023-08-31T05:54:25;1507.63;;;999.90;;
7239;SDS011;3661;53.288;10.458;2023-08-31T05:56:58;1520.57;;;999.90;;
7239;SDS011;3661;53.288;10.458;2023-08-31T05:59:30;1527.57;;;999.90;;
7239;SDS011;3661;53.288;10.458;2023-08-31T06:02:05;1494.30;;;999.90;;
7239;SDS011;3661;53.288;10.458;2023-08-31T06:04:39;1525.32;;;999.90;;
7239;SDS011;3661;53.288;10.458;2023-08-31T06:07:12;1519.88;;;999.90;;
7239;SDS011;3661;53.288;10.458;2023-08-31T06:09:44;1502.72;;;999.90;;
7239;SDS011;3661;53.288;10.458;2023-08-31T06:12:16;1509.88;;;999.90;;
7239;SDS011;3661;53.288;10.458;2023-08-31T06:14:48;1522.70;;;999.90;;
7239;SDS011;3661;53.288;10.458;2023-08-31T06:17:22;1535.37;;;999.90;;
7239;SDS011;3661;53.288;10.458;2023-08-31T06:19:54;1543.43;;;999.90;;
7239;SDS011;3661;53.288;10.458;2023-08-31T06:22:26;1523.30;;;999.90;;
7239;SDS011;3661;53.288;10.458;2023-08-31T06:24:58;1516.50;;;999.90;;
7239;SDS011;3661;53.288;10.458;2023-08-31T06:27:32;1524.90;;;999.90;;
7239;SDS011;3661;53.288;10.458;2023-08-31T06:33:41;1547.72;;;999.90;;
7239;SDS011;3661;53.288;10.458;2023-08-31T06:36:38;1522.07;;;999.90;;
7239;SDS011;3661;53.288;10.458;2023-08-31T06:39:44;1534.90;;;999.90;;
7239;SDS011;3661;53.288;10.458;2023-08-31T06:42:35;1550.13;;;999.90;;
7239;SDS011;3661;53.288;10.458;2023-08-31T06:45:20;1550.03;;;999.90;;
7239;SDS011;3661;53.288;10.458;2023-08-31T06:54:31;1570.03;;;999.90;;
7239;SDS011;3661;53.288;10.458;2023-08-31T06:57:08;1562.18;;;999.90;;
7239;SDS011;3661;53.288;10.458;2023-08-31T06:59:46;1581.05;;;999.90;;
7239;SDS011;3661;53.288;10.458;2023-08-31T07:02:29;1588.40;;;999.90;;
7239;SDS011;3661;53.288;10.458;2023-08-31T07:05:09;1570.20;;;999.90;;
7239;SDS011;3661;53.288;10.458;2023-08-31T07:11:20;1570.53;;;999.90;;
7239;SDS011;3661;53.288;10.458;2023-08-31T07:13:59;1589.07;;;999.90;;
7239;SDS011;3661;53.288;10.458;2023-08-31T07:17:03;1584.32;;;999.90;;
7239;SDS011;3661;53.288;10.458;2023-08-31T07:19:39;1575.75;;;999.90;;
7239;SDS011;3661;53.288;10.458;2023-08-31T07:22:14;1589.75;;;999.90;;
7239;SDS011;3661;53.288;10.458;2023-08-31T07:24:50;1601.15;;;999.90;;
7239;SDS011;3661;53.288;10.458;2023-08-31T07:27:34;1595.18;;;999.90;;
7239;SDS011;3661;53.288;10.458;2023-08-31T07:30:08;1600.77;;;999.90;;
7239;SDS011;3661;53.288;10.458;2023-08-31T07:32:58;1613.63;;;999.90;;
7239;SDS011;3661;53.288;10.458;2023-08-31T07:35:47;1616.90;;;999.90;;
7239;SDS011;3661;53.288;10.458;2023-08-31T07:42:26;1602.32;;;999.90;;
7239;SDS011;3661;53.288;10.458;2023-08-31T07:48:28;1614.63;;;999.90;;
7239;SDS011;3661;53.288;10.458;2023-08-31T07:51:04;1630.13;;;999.90;;
7239;SDS011;3661;53.288;10.458;2023-08-31T07:53:45;1647.05;;;999.90;;
7239;SDS011;3661;53.288;10.458;2023-08-31T08:06:13;1661.07;;;999.90;;
7239;SDS011;3661;53.288;10.458;2023-08-31T08:08:47;1667.38;;;999.90;;
7239;SDS011;3661;53.288;10.458;2023-08-31T08:11:22;1672.93;;;999.90;;
7239;SDS011;3661;53.288;10.458;2023-08-31T08:13:54;1671.35;;;999.90;;
7239;SDS011;3661;53.288;10.458;2023-08-31T08:16:30;1668.47;;;999.90;;
7239;SDS011;3661;53.288;10.458;2023-08-31T08:19:03;1674.50;;;999.90;;
7239;SDS011;3661;53.288;10.458;2023-08-31T08:21:38;1685.63;;;999.90;;
7239;SDS011;3661;53.288;10.458;2023-08-31T08:24:11;1672.00;;;999.90;;
7239;SDS011;3661;53.288;10.458;2023-08-31T08:26:43;1672.60;;;999.90;;
7239;SDS011;3661;53.288;10.458;2023-08-31T08:29:17;1698.18;;;999.90;;
7239;SDS011;3661;53.288;10.458;2023-08-31T08:31:52;1694.68;;;999.90;;
7239;SDS011;3661;53.288;10.458;2023-08-31T08:34:25;1709.35;;;999.90;;
7239;SDS011;3661;53.288;10.458;2023-08-31T08:37:01;1697.43;;;999.90;;
7239;SDS011;3661;53.288;10.458;2023-08-31T08:39:34;1708.72;;;999.90;;
7239;SDS011;3661;53.288;10.458;2023-08-31T08:42:06;1702.43;;;999.90;;
7239;SDS011;3661;53.288;10.458;2023-08-31T08:44:41;1718.63;;;999.90;;
7239;SDS011;3661;53.288;10.458;2023-08-31T08:47:14;1708.40;;;999.90;;
7239;SDS011;3661;53.288;10.458;2023-08-31T08:49:47;1702.90;;;999.90;;
7239;SDS011;3661;53.288;10.458;2023-08-31T08:52:22;1721.05;;;999.90;;
7239;SDS011;3661;53.288;10.458;2023-08-31T08:54:55;1725.82;;;999.90;;
7239;SDS011;3661;53.288;10.458;2023-08-31T08:57:30;1733.68;;;999.90;;
7239;SDS011;3661;53.288;10.458;2023-08-31T09:00:03;1741.30;;;999.90;;
7239;SDS011;3661;53.288;10.458;2023-08-31T09:02:36;1755.07;;;999.90;;
7239;SDS011;3661;53.288;10.458;2023-08-31T09:05:08;1758.10;;;999.90;;
7239;SDS011;3661;53.288;10.458;2023-08-31T09:08:03;1756.80;;;999.90;;
7239;SDS011;3661;53.288;10.458;2023-08-31T09:10:40;1795.00;;;999.90;;
7239;SDS011;3661;53.288;10.458;2023-08-31T09:13:17;1781.72;;;999.90;;
7239;SDS011;3661;53.288;10.458;2023-08-31T09:15:56;1801.57;;;999.90;;
7239;SDS011;3661;53.288;10.458;2023-08-31T09:18:34;1812.38;;;999.90;;
7239;SDS011;3661;53.288;10.458;2023-08-31T09:21:07;1800.97;;;999.90;;
7239;SDS011;3661;53.288;10.458;2023-08-31T09:23:46;1823.45;;;999.90;;
7239;SDS011;3661;53.288;10.458;2023-08-31T09:26:27;1826.80;;;999.90;;
7239;SDS011;3661;53.288;10.458;2023-08-31T09:29:01;1831.47;;;999.90;;
7239;SDS011;3661;53.288;10.458;2023-08-31T09:31:33;1838.47;;;999.90;;
7239;SDS011;3661;53.288;10.458;2023-08-31T09:34:06;1840.00;;;999.90;;
7239;SDS011;3661;53.288;10.458;2023-08-31T09:36:38;1847.53;;;999.90;;
7239;SDS011;3661;53.288;10.458;2023-08-31T09:39:12;1856.63;;;999.90;;
7239;SDS011;3661;53.288;10.458;2023-08-31T09:41:58;1870.55;;;999.90;;
7239;SDS011;3661;53.288;10.458;2023-08-31T09:44:33;1847.13;;;999.90;;
7239;SDS011;3661;53.288;10.458;2023-08-31T09:47:06;1872.15;;;999.90;;
7239;SDS011;3661;53.288;10.458;2023-08-31T09:49:38;1881.65;;;999.90;;
7239;SDS011;3661;53.288;10.458;2023-08-31T09:52:14;1896.38;;;999.90;;
7239;SDS011;3661;53.288;10.458;2023-08-31T09:54:53;1883.95;;;999.90;;
7239;SDS011;3661;53.288;10.458;2023-08-31T09:57:26;1900.85;;;999.90;;
7239;SDS011;3661;53.288;10.458;2023-08-31T10:00:00;1889.05;;;999.90;;
7239;SDS011;3661;53.288;10.458;2023-08-31T10:02:32;1888.85;;;999.90;;
7239;SDS011;3661;53.288;10.458;2023-08-31T10:05:13;1892.38;;;999.90;;
7239;SDS011;3661;53.288;10.458;2023-08-31T10:07:46;1891.97;;;999.90;;
7239;SDS011;3661;53.288;10.458;2023-08-31T10:10:24;1903.47;;;999.90;;
7239;SDS011;3661;53.288;10.458;2023-08-31T10:12:58;1890.10;;;999.90;;
7239;SDS011;3661;53.288;10.458;2023-08-31T10:15:32;1894.30;;;999.90;;
7239;SDS011;3661;53.288;10.458;2023-08-31T10:18:15;1904.75;;;999.90;;
7239;SDS011;3661;53.288;10.458;2023-08-31T10:20:48;1916.93;;;999.90;;
7239;SDS011;3661;53.288;10.458;2023-08-31T10:23:20;1909.95;;;999.90;;
7239;SDS011;3661;53.288;10.458;2023-08-31T10:29:02;1906.05;;;999.90;;
7239;SDS011;3661;53.288;10.458;2023-08-31T10:31:35;1908.35;;;999.90;;
7239;SDS011;3661;53.288;10.458;2023-08-31T10:34:08;1901.70;;;999.90;;
7239;SDS011;3661;53.288;10.458;2023-08-31T10:36:46;1923.70;;;999.90;;
7239;SDS011;3661;53.288;10.458;2023-08-31T10:39:37;1927.65;;;999.90;;
7239;SDS011;3661;53.288;10.458;2023-08-31T10:42:16;1948.10;;;999.90;;
7239;SDS011;3661;53.288;10.458;2023-08-31T10:45:05;1942.95;;;999.90;;
7239;SDS011;3661;53.288;10.458;2023-08-31T10:47:49;1943.38;;;999.90;;
7239;SDS011;3661;53.288;10.458;2023-08-31T10:50:35;1950.75;;;999.90;;
7239;SDS011;3661;53.288;10.458;2023-08-31T10:53:17;1915.78;;;999.90;;
7239;SDS011;3661;53.288;10.458;2023-08-31T10:56:03;1946.78;;;999.90;;
7239;SDS011;3661;53.288;10.458;2023-08-31T10:59:00;1908.78;;;999.90;;
7239;SDS011;3661;53.288;10.458;2023-08-31T11:01:51;1921.28;;;999.90;;
7239;SDS011;3661;53.288;10.458;2023-08-31T11:04:25;1901.15;;;999.90;;
7239;SDS011;3661;53.288;10.458;2023-08-31T11:07:15;1909.80;;;999.90;;
7239;SDS011;3661;53.288;10.458;2023-08-31T11:09:48;1927.88;;;999.90;;
7239;SDS011;3661;53.288;10.458;2023-08-31T11:12:22;1918.57;;;999.90;;
7239;SDS011;3661;53.288;10.458;2023-08-31T11:14:56;1924.15;;;999.90;;
7239;SDS011;3661;53.288;10.458;2023-08-31T11:17:40;1917.85;;;999.90;;
7239;SDS011;3661;53.288;10.458;2023-08-31T11:20:13;1915.38;;;999.90;;
7239;SDS011;3661;53.288;10.458;2023-08-31T11:22:49;1915.85;;;999.90;;
7239;SDS011;3661;53.288;10.458;2023-08-31T11:25:43;1932.55;;;999.90;;
7239;SDS011;3661;53.288;10.458;2023-08-31T11:28:17;1904.28;;;999.90;;
7239;SDS011;3661;53.288;10.458;2023-08-31T11:30:51;1922.43;;;999.90;;
7239;SDS011;3661;53.288;10.458;2023-08-31T11:33:23;1924.97;;;999.90;;
7239;SDS011;3661;53.288;10.458;2023-08-31T11:36:02;1947.03;;;999.90;;
7239;SDS011;3661;53.288;10.458;2023-08-31T11:38:35;1950.85;;;999.90;;
7239;SDS011;3661;53.288;10.458;2023-08-31T11:41:08;1942.78;;;999.90;;
7239;SDS011;3661;53.288;10.458;2023-08-31T11:43:40;1952.75;;;999.90;;
7239;SDS011;3661;53.288;10.458;2023-08-31T11:46:14;1944.18;;;999.90;;
7239;SDS011;3661;53.288;10.458;2023-08-31T11:48:47;1939.23;;;999.90;;
7239;SDS011;3661;53.288;10.458;2023-08-31T11:51:20;1935.93;;;999.90;;
7239;SDS011;3661;53.288;10.458;2023-08-31T11:53:52;1943.10;;;999.90;;
7239;SDS011;3661;53.288;10.458;2023-08-31T11:56:26;1941.32;;;999.90;;
7239;SDS011;3661;53.288;10.458;2023-08-31T11:58:58;1958.65;;;999.90;;
7239;SDS011;3661;53.288;10.458;2023-08-31T12:01:32;1945.57;;;999.90;;
7239;SDS011;3661;53.288;10.458;2023-08-31T12:04:09;1944.00;;;999.90;;
7239;SDS011;3661;53.288;10.458;2023-08-31T12:06:46;1959.80;;;999.90;;
7239;SDS011;3661;53.288;10.458;2023-08-31T12:09:20;1966.53;;;999.90;;
7239;SDS011;3661;53.288;10.458;2023-08-31T12:11:52;1959.45;;;999.90;;
7239;SDS011;3661;53.288;10.458;2023-08-31T12:14:25;1968.33;;;999.90;;
7239;SDS011;3661;53.288;10.458;2023-08-31T12:17:03;1974.63;;;999.90;;
7239;SDS011;3661;53.288;10.458;2023-08-31T12:19:37;1978.05;;;999.90;;
7239;SDS011;3661;53.288;10.458;2023-08-31T12:22:10;1994.47;;;999.90;;
7239;SDS011;3661;53.288;10.458;2023-08-31T12:27:39;1999.90;;;999.90;;
7239;SDS011;3661;53.288;10.458;2023-08-31T12:30:20;1999.90;;;999.90;;
7239;SDS011;3661;53.288;10.458;2023-08-31T12:32:53;1999.90;;;999.90;;
7239;SDS011;3661;53.288;10.458;2023-08-31T12:35:32;1999.90;;;999.90;;
7239;SDS011;3661;53.288;10.458;2023-08-31T12:38:08;1999.90;;;999.90;;
7239;SDS011;3661;53.288;10.458;2023-08-31T12:40:45;1999.90;;;999.90;;
7239;SDS011;3661;53.288;10.458;2023-08-31T12:43:20;1999.90;;;999.90;;
7239;SDS011;3661;53.288;10.458;2023-08-31T12:45:53;1999.90;;;999.90;;
7239;SDS011;3661;53.288;10.458;2023-08-31T12:48:27;1999.90;;;999.90;;
7239;SDS011;3661;53.288;10.458;2023-08-31T12:51:22;1999.90;;;999.90;;
7239;SDS011;3661;53.288;10.458;2023-08-31T12:53:56;1999.90;;;999.90;;
7239;SDS011;3661;53.288;10.458;2023-08-31T12:56:28;1999.90;;;999.90;;
7239;SDS011;3661;53.288;10.458;2023-08-31T12:59:04;1999.90;;;999.90;;
7239;SDS011;3661;53.288;10.458;2023-08-31T13:01:37;1999.90;;;999.90;;
7239;SDS011;3661;53.288;10.458;2023-08-31T13:04:11;1999.90;;;999.90;;
7239;SDS011;3661;53.288;10.458;2023-08-31T13:06:44;1999.90;;;999.90;;
7239;SDS011;3661;53.288;10.458;2023-08-31T13:09:17;1999.90;;;999.90;;
7239;SDS011;3661;53.288;10.458;2023-08-31T13:11:50;1999.90;;;999.90;;
7239;SDS011;3661;53.288;10.458;2023-08-31T13:14:24;1999.90;;;999.90;;
7239;SDS011;3661;53.288;10.458;2023-08-31T13:16:56;1999.90;;;999.90;;
7239;SDS011;3661;53.288;10.458;2023-08-31T13:19:30;1999.90;;;999.90;;
7239;SDS011;3661;53.288;10.458;2023-08-31T13:22:03;1999.90;;;999.90;;
7239;SDS011;3661;53.288;10.458;2023-08-31T13:24:35;1999.90;;;999.90;;
7239;SDS011;3661;53.288;10.458;2023-08-31T13:27:08;1999.90;;;999.90;;
7239;SDS011;3661;53.288;10.458;2023-08-31T13:29:40;1999.90;;;999.90;;
7239;SDS011;3661;53.288;10.458;2023-08-31T13:32:18;1999.90;;;999.90;;
7239;SDS011;3661;53.288;10.458;2023-08-31T13:34:52;1999.90;;;999.90;;
7239;SDS011;3661;53.288;10.458;2023-08-31T13:37:25;1999.90;;;999.90;;
7239;SDS011;3661;53.288;10.458;2023-08-31T13:39:57;1999.90;;;999.90;;
7239;SDS011;3661;53.288;10.458;2023-08-31T13:42:35;1999.90;;;999.90;;
7239;SDS011;3661;53.288;10.458;2023-08-31T13:45:33;1999.90;;;999.90;;
7239;SDS011;3661;53.288;10.458;2023-08-31T13:48:06;1999.90;;;999.90;;
7239;SDS011;3661;53.288;10.458;2023-08-31T13:50:40;1977.25;;;999.90;;
7239;SDS011;3661;53.288;10.458;2023-08-31T13:53:21;1972.22;;;999.90;;
7239;SDS011;3661;53.288;10.458;2023-08-31T13:55:54;1968.80;;;999.90;;
7239;SDS011;3661;53.288;10.458;2023-08-31T13:58:27;1963.50;;;999.90;;
7239;SDS011;3661;53.288;10.458;2023-08-31T14:01:00;1952.60;;;999.90;;
7239;SDS011;3661;53.288;10.458;2023-08-31T14:03:33;1926.03;;;999.90;;
7239;SDS011;3661;53.288;10.458;2023-08-31T14:06:07;1942.57;;;999.90;;
7239;SDS011;3661;53.288;10.458;2023-08-31T14:08:39;1946.15;;;999.90;;
7239;SDS011;3661;53.288;10.458;2023-08-31T14:11:14;1922.47;;;999.90;;
7239;SDS011;3661;53.288;10.458;2023-08-31T14:13:46;1931.03;;;999.90;;
7239;SDS011;3661;53.288;10.458;2023-08-31T14:16:19;1887.07;;;999.90;;
7239;SDS011;3661;53.288;10.458;2023-08-31T14:26:57;1872.03;;;999.90;;
7239;SDS011;3661;53.288;10.458;2023-08-31T14:32:53;1869.32;;;999.90;;
7239;SDS011;3661;53.288;10.458;2023-08-31T14:35:52;1874.05;;;999.90;;
7239;SDS011;3661;53.288;10.458;2023-08-31T14:39:22;1848.78;;;999.90;;
7239;SDS011;3661;53.288;10.458;2023-08-31T14:42:14;1852.05;;;999.90;;
7239;SDS011;3661;53.288;10.458;2023-08-31T14:45:27;1850.07;;;999.90;;
7239;SDS011;3661;53.288;10.458;2023-08-31T14:49:11;1843.35;;;999.90;;
7239;SDS011;3661;53.288;10.458;2023-08-31T15:44:08;1947.43;;;999.90;;
7239;SDS011;3661;53.288;10.458;2023-08-31T15:53:58;1973.68;;;999.90;;
7239;SDS011;3661;53.288;10.458;2023-08-31T16:19:14;1987.75;;;999.90;;
7239;SDS011;3661;53.288;10.458;2023-08-31T16:26:12;1969.57;;;999.90;;
7239;SDS011;3661;53.288;10.458;2023-08-31T17:29:09;1861.32;;;999.90;;
7239;SDS011;3661;53.288;10.458;2023-08-31T17:32:17;1827.57;;;999.90;;
7239;SDS011;3661;53.288;10.458;2023-08-31T17:35:09;1853.85;;;999.90;;
7239;SDS011;3661;53.288;10.458;2023-08-31T17:37:56;1860.85;;;999.90;;
7239;SDS011;3661;53.288;10.458;2023-08-31T17:44:21;1845.75;;;999.90;;
7239;SDS011;3661;53.288;10.458;2023-08-31T17:51:14;1791.50;;;999.90;;
7239;SDS011;3661;53.288;10.458;2023-08-31T17:54:01;1819.68;;;999.90;;
7239;SDS011;3661;53.288;10.458;2023-08-31T18:03:50;1796.28;;;999.90;;
7239;SDS011;3661;53.288;10.458;2023-08-31T18:06:50;1802.20;;;999.90;;
7239;SDS011;3661;53.288;10.458;2023-08-31T18:13:21;1765.20;;;999.90;;
7239;SDS011;3661;53.288;10.458;2023-08-31T18:23:20;1769.28;;;999.90;;
7239;SDS011;3661;53.288;10.458;2023-08-31T18:26:25;1761.28;;;999.90;;
7239;SDS011;3661;53.288;10.458;2023-08-31T18:29:42;1745.20;;;999.90;;
7239;SDS011;3661;53.288;10.458;2023-08-31T18:40:50;1725.68;;;999.90;;
7239;SDS011;3661;53.288;10.458;2023-08-31T18:42:19;1726.35;;;999.90;;